Time;durP1;ratioP1;P1;durP2;ratioP2;P2;SDS_P1;SDS_P2;PMS_P1;PMS_P2;Temp;Humidity;BMP_temperature;BMP_pressure;BME280_temperature;BME280_humidity;BME280_pressure;Samples;Min_cycle;Max_cycle;Signal;HPM_P1;HPM_P2
2023/12/01 00:00:42;;;;;;;0.70;0.70;;;;;;;-141.23;100.00;62281.09;5100099;27;20035;-69
2023/12/01 00:03:08;;;;;;;2.83;1.63;;;;;;;-141.23;100.00;62281.09;5117893;27;20043;-68
2023/12/01 00:05:36;;;;;;;2.13;1.60;;;;;;;-141.23;100.00;62281.09;5101163;27;20565;-68
2023/12/01 00:08:02;;;;;;;2.27;2.10;;;;;;;-141.23;100.00;62281.09;5097940;27;20177;-68
2023/12/01 00:10:28;;;;;;;2.67;2.07;;;;;;;-141.23;100.00;62281.09;5126180;27;20046;-68
2023/12/01 00:12:54;;;;;;;3.07;2.03;;;;;;;-141.23;100.00;62281.09;5118295;27;20058;-67
2023/12/01 00:15:20;;;;;;;1.30;1.23;;;;;;;-141.23;100.00;62281.09;5066683;28;20079;-68
2023/12/01 00:17:46;;;;;;;1.63;1.53;;;;;;;-141.23;100.00;62281.09;5033548;28;20053;-69
2023/12/01 00:20:12;;;;;;;4.23;1.87;;;;;;;-141.23;100.00;62281.09;5033783;28;20142;-69
2023/12/01 00:22:38;;;;;;;0.83;0.83;;;;;;;-141.23;100.00;62281.09;5051829;28;20071;-68
2023/12/01 00:25:05;;;;;;;1.80;1.40;;;;;;;-141.23;100.00;62281.09;5015868;28;20115;-69
2023/12/01 00:27:31;;;;;;;2.00;1.73;;;;;;;-141.23;100.00;62281.09;5049098;28;20060;-70
2023/12/01 00:29:57;;;;;;;1.47;1.37;;;;;;;-141.23;100.00;62281.09;5032428;28;20520;-69
2023/12/01 00:32:23;;;;;;;0.97;0.97;;;;;;;-141.23;100.00;62281.09;5032323;28;20049;-70
2023/12/01 00:34:50;;;;;;;1.80;1.57;;;;;;;-141.23;100.00;62281.09;5032087;28;20473;-70
2023/12/01 00:37:16;;;;;;;3.17;2.87;;;;;;;-141.23;100.00;62281.09;5032528;28;20051;-68
2023/12/01 00:39:42;;;;;;;1.07;0.90;;;;;;;-141.23;100.00;62281.09;5032763;28;20053;-67
2023/12/01 00:42:09;;;;;;;3.00;1.73;;;;;;;-141.23;100.00;62281.09;5032805;28;20075;-68
2023/12/01 00:44:35;;;;;;;3.07;2.03;;;;;;;-141.23;100.00;62281.09;5049405;28;20045;-68
2023/12/01 00:47:01;;;;;;;2.17;1.93;;;;;;;-141.23;100.00;62281.09;5085199;28;20154;-69
2023/12/01 00:49:27;;;;;;;4.60;3.23;;;;;;;-141.23;100.00;62281.09;5059662;28;20075;-68
2023/12/01 00:51:52;;;;;;;1.27;1.17;;;;;;;-141.23;100.00;62281.09;5059763;28;20050;-68
2023/12/01 00:54:19;;;;;;;3.50;2.30;;;;;;;-141.23;100.00;62281.09;5092910;28;20392;-68
2023/12/01 00:56:45;;;;;;;1.47;1.37;;;;;;;-141.23;100.00;62281.09;5109252;27;20042;-69
2023/12/01 00:59:11;;;;;;;1.40;1.30;;;;;;;-141.23;100.00;62281.09;5100883;27;20543;-68
2023/12/01 01:01:37;;;;;;;1.40;1.30;;;;;;;-141.23;100.00;62281.09;5100726;27;20039;-68
2023/12/01 01:04:02;;;;;;;0.80;0.80;;;;;;;-141.23;100.00;62281.09;5100813;27;20095;-68
2023/12/01 01:06:28;;;;;;;0.73;0.73;;;;;;;-141.23;100.00;62281.09;5134703;27;20142;-69
2023/12/01 01:08:54;;;;;;;1.53;1.47;;;;;;;-141.23;100.00;62281.09;5102618;27;20656;-68
2023/12/01 01:11:20;;;;;;;1.50;1.40;;;;;;;-141.23;100.00;62281.09;5121980;27;20086;-68
2023/12/01 01:13:46;;;;;;;2.30;1.70;;;;;;;-141.23;100.00;62281.09;5104351;27;20099;-68
2023/12/01 01:16:11;;;;;;;1.10;1.10;;;;;;;-141.23;100.00;62281.09;5104353;27;20129;-68
2023/12/01 01:18:38;;;;;;;2.70;2.50;;;;;;;-141.23;100.00;62281.09;5138307;27;20085;-67
2023/12/01 01:21:04;;;;;;;1.43;1.33;;;;;;;-141.23;100.00;62281.09;5121402;27;20046;-67
2023/12/01 01:23:30;;;;;;;0.70;0.70;;;;;;;-141.23;100.00;62281.09;5099414;27;20071;-68
2023/12/01 01:25:56;;;;;;;1.53;1.43;;;;;;;-141.23;100.00;62281.09;5066760;27;20097;-67
2023/12/01 01:28:22;;;;;;;1.73;1.30;;;;;;;-141.23;100.00;62281.09;5066143;27;20051;-70
2023/12/01 01:30:48;;;;;;;2.90;2.63;;;;;;;-141.23;100.00;62281.09;5066087;27;20352;-69
2023/12/01 01:33:14;;;;;;;1.13;1.00;;;;;;;-141.23;100.00;62281.09;5065934;27;20051;-69
2023/12/01 01:35:39;;;;;;;2.57;2.17;;;;;;;-141.23;100.00;62281.09;5066070;27;20046;-69
2023/12/01 01:38:05;;;;;;;2.10;2.00;;;;;;;-141.23;100.00;62281.09;5065833;27;20398;-69
2023/12/01 01:40:31;;;;;;;2.60;2.30;;;;;;;-141.23;100.00;62281.09;5082828;27;20047;-69
2023/12/01 01:42:57;;;;;;;4.37;2.40;;;;;;;-141.23;100.00;62281.09;5066189;27;20565;-69
2023/12/01 01:45:23;;;;;;;1.10;1.10;;;;;;;-141.23;100.00;62281.09;5065856;27;20035;-69
2023/12/01 01:47:49;;;;;;;1.90;1.53;;;;;;;-141.23;100.00;62281.09;5065782;27;20648;-69
2023/12/01 01:50:15;;;;;;;5.57;3.57;;;;;;;-141.23;100.00;62281.09;5082565;27;20159;-68
2023/12/01 01:52:41;;;;;;;0.90;0.90;;;;;;;-141.23;100.00;62281.09;5065720;27;20075;-69
2023/12/01 01:55:08;;;;;;;2.17;1.97;;;;;;;-141.23;100.00;62281.09;5128360;27;20133;-69
2023/12/01 01:57:37;;;;;;;2.83;1.83;;;;;;;-141.23;100.00;62281.09;5120594;27;20046;-69
2023/12/01 02:00:06;;;;;;;1.47;1.37;;;;;;;-141.23;100.00;62281.09;5121031;27;20038;-69
2023/12/01 02:02:39;;;;;;;1.10;1.10;;;;;;;-141.23;100.00;62281.09;5139668;27;20299;-69
2023/12/01 02:05:12;;;;;;;4.40;1.87;;;;;;;-141.23;100.00;62281.09;5120618;27;20035;-69
2023/12/01 02:07:40;;;;;;;3.17;2.73;;;;;;;-141.23;100.00;62281.09;5082050;27;20051;-69
2023/12/01 02:10:15;;;;;;;1.07;1.07;;;;;;;-141.23;100.00;62281.09;5081998;27;20367;-69
2023/12/01 02:12:47;;;;;;;3.28;2.97;;;;;;;-141.23;100.00;62281.09;5084606;27;20583;-69
2023/12/01 02:15:13;;;;;;;1.50;1.40;;;;;;;-141.23;100.00;62281.09;5099237;27;20051;-69
2023/12/01 02:17:43;;;;;;;2.40;2.20;;;;;;;-141.23;100.00;62281.09;5082897;27;20154;-68
2023/12/01 02:20:29;;;;;;;2.97;1.93;;;;;;;-141.23;100.00;62281.09;5090309;27;20141;-69
2023/12/01 02:22:55;;;;;;;7.40;1.63;;;;;;;-141.23;100.00;62281.09;5081757;27;20145;-69
2023/12/01 02:25:20;;;;;;;3.67;2.27;;;;;;;-141.23;100.00;62281.09;5081886;27;20566;-69
2023/12/01 02:27:47;;;;;;;2.43;2.10;;;;;;;-141.23;100.00;62281.09;5081659;27;20074;-69
2023/12/01 02:30:13;;;;;;;2.17;1.87;;;;;;;-141.23;100.00;62281.09;5098723;27;20073;-68
2023/12/01 02:32:39;;;;;;;3.03;2.27;;;;;;;-141.23;100.00;62281.09;5081440;27;20047;-68
2023/12/01 02:35:09;;;;;;;1.93;1.83;;;;;;;-141.23;100.00;62281.09;5081593;27;20071;-68
2023/12/01 02:37:35;;;;;;;1.83;1.53;;;;;;;-141.23;100.00;62281.09;5084848;27;20054;-68
2023/12/01 02:40:04;;;;;;;3.03;1.43;;;;;;;-141.23;100.00;62281.09;5102920;27;20038;-71
2023/12/01 02:42:30;;;;;;;1.73;1.63;;;;;;;-141.23;100.00;62281.09;5103499;27;20046;-69
2023/12/01 02:44:56;;;;;;;0.87;0.87;;;;;;;-141.23;100.00;62281.09;5102948;27;20042;-68
2023/12/01 02:47:22;;;;;;;3.30;2.50;;;;;;;-141.23;100.00;62281.09;5102810;27;20038;-68
2023/12/01 02:49:48;;;;;;;2.17;1.50;;;;;;;-141.23;100.00;62281.09;5102458;27;20047;-69
2023/12/01 02:52:13;;;;;;;3.23;2.60;;;;;;;-141.23;100.00;62281.09;5102674;27;20039;-68
2023/12/01 02:54:40;;;;;;;2.00;1.80;;;;;;;-141.23;100.00;62281.09;5136344;27;20043;-68
2023/12/01 02:57:06;;;;;;;3.03;1.87;;;;;;;-141.23;100.00;62281.09;5102393;27;20061;-69
2023/12/01 02:59:34;;;;;;;0.80;0.80;;;;;;;-141.23;100.00;62281.09;5153774;27;20226;-69
2023/12/01 03:02:00;;;;;;;1.53;1.00;;;;;;;-141.23;100.00;62281.09;5102898;27;20049;-68
2023/12/01 03:04:26;;;;;;;2.00;1.90;;;;;;;-141.23;100.00;62281.09;5136500;27;20462;-68
2023/12/01 03:06:52;;;;;;;1.10;1.00;;;;;;;-141.23;100.00;62281.09;5102184;27;20039;-70
2023/12/01 03:09:18;;;;;;;1.37;1.37;;;;;;;-141.23;100.00;62281.09;5136487;27;20134;-70
2023/12/01 03:11:44;;;;;;;1.13;1.13;;;;;;;-141.23;100.00;62281.09;5136250;27;20055;-70
2023/12/01 03:14:11;;;;;;;2.00;1.83;;;;;;;-141.23;100.00;62281.09;5102452;27;20141;-69
2023/12/01 03:16:37;;;;;;;1.83;1.73;;;;;;;-141.23;100.00;62281.09;5102068;27;20047;-69
2023/12/01 03:19:03;;;;;;;1.53;1.43;;;;;;;-141.23;100.00;62281.09;5135772;27;20038;-70
2023/12/01 03:21:29;;;;;;;3.43;2.47;;;;;;;-141.23;100.00;62281.09;5102043;27;20469;-70
2023/12/01 03:23:55;;;;;;;3.70;2.97;;;;;;;-141.23;100.00;62281.09;5098545;27;20060;-70
2023/12/01 03:26:22;;;;;;;2.50;1.73;;;;;;;-141.23;100.00;62281.09;5101485;27;20037;-70
2023/12/01 03:28:48;;;;;;;2.23;2.03;;;;;;;-141.23;100.00;62281.09;5101654;27;20039;-69
2023/12/01 03:31:14;;;;;;;1.77;1.17;;;;;;;-141.23;100.00;62281.09;5117337;27;20125;-70
2023/12/01 03:33:40;;;;;;;1.00;1.00;;;;;;;-141.23;100.00;62281.09;5118185;27;20541;-70
2023/12/01 03:36:06;;;;;;;1.10;1.10;;;;;;;-141.23;100.00;62281.09;5100217;27;20091;-69
2023/12/01 03:38:32;;;;;;;2.40;2.00;;;;;;;-141.23;100.00;62281.09;5101311;27;20038;-69
2023/12/01 03:41:00;;;;;;;0.80;0.80;;;;;;;-141.23;100.00;62281.09;5101202;27;20042;-69
2023/12/01 03:43:26;;;;;;;2.20;2.03;;;;;;;-141.23;100.00;62281.09;5093292;27;20042;-69
2023/12/01 03:45:52;;;;;;;0.93;0.93;;;;;;;-141.23;100.00;62281.09;5117942;27;20154;-69
2023/12/01 03:48:17;;;;;;;2.27;1.90;;;;;;;-141.23;100.00;62281.09;5101131;27;20044;-67
2023/12/01 03:50:43;;;;;;;1.73;1.63;;;;;;;-141.23;100.00;62281.09;5100744;27;20042;-70
2023/12/01 03:53:09;;;;;;;1.67;1.57;;;;;;;-141.23;100.00;62281.09;5098777;27;20390;-70
2023/12/01 03:55:35;;;;;;;1.63;1.53;;;;;;;-141.23;100.00;62281.09;5100977;27;20114;-69
2023/12/01 03:58:02;;;;;;;1.70;1.60;;;;;;;-141.23;100.00;62281.09;5100475;27;20042;-69
2023/12/01 04:00:32;;;;;;;2.90;2.67;;;;;;;-141.23;100.00;62281.09;5099656;27;20129;-69
2023/12/01 04:02:58;;;;;;;1.37;1.33;;;;;;;-141.23;100.00;62281.09;5101532;27;20058;-69
2023/12/01 04:05:26;;;;;;;2.10;1.83;;;;;;;-141.23;100.00;62281.09;5100648;27;20051;-69
2023/12/01 04:07:52;;;;;;;3.60;2.43;;;;;;;-141.23;100.00;62281.09;5099086;27;20383;-69
2023/12/01 04:10:19;;;;;;;2.37;2.17;;;;;;;-141.23;100.00;62281.09;5126601;27;20057;-67
2023/12/01 04:12:46;;;;;;;3.73;3.43;;;;;;;-141.23;100.00;62281.09;5069790;28;20051;-69
2023/12/01 04:15:18;;;;;;;2.23;2.03;;;;;;;-141.23;100.00;62281.09;5043318;28;20138;-70
2023/12/01 04:17:46;;;;;;;1.98;1.75;;;;;;;-141.23;100.00;62281.09;5060263;28;20559;-70
2023/12/01 04:20:21;;;;;;;1.60;1.53;;;;;;;-141.23;100.00;62281.09;5062868;28;20058;-70
2023/12/01 04:23:14;;;;;;;3.08;2.10;;;;;;;-141.23;100.00;62281.09;5052491;28;20043;-70
2023/12/01 04:25:46;;;;;;;3.93;2.53;;;;;;;-141.23;100.00;62281.09;5042123;28;20172;-70
2023/12/01 04:28:13;;;;;;;1.80;1.70;;;;;;;-141.23;100.00;62281.09;5042289;28;20047;-69
2023/12/01 04:30:40;;;;;;;2.93;2.73;;;;;;;-141.23;100.00;62281.09;5059167;28;20043;-76
2023/12/01 04:33:06;;;;;;;2.77;2.57;;;;;;;-141.23;100.00;62281.09;5044082;28;20036;-76
2023/12/01 04:35:34;;;;;;;1.30;1.17;;;;;;;-141.23;100.00;62281.09;5060396;28;20054;-75
2023/12/01 04:38:03;;;;;;;2.23;2.03;;;;;;;-141.23;100.00;62281.09;5055028;28;20039;-74
2023/12/01 04:40:31;;;;;;;5.55;1.77;;;;;;;-141.23;100.00;62281.09;5059484;28;20032;-73
2023/12/01 04:42:59;;;;;;;2.07;1.47;;;;;;;-141.23;100.00;62281.09;5085757;27;20054;-73
2023/12/01 04:45:30;;;;;;;3.70;2.67;;;;;;;-141.23;100.00;62281.09;5102978;27;20098;-73
2023/12/01 04:47:57;;;;;;;3.13;2.78;;;;;;;-141.23;100.00;62281.09;5103449;27;20179;-74
2023/12/01 04:50:27;;;;;;;2.27;1.47;;;;;;;-141.23;100.00;62281.09;5126761;27;20058;-72
2023/12/01 04:52:58;;;;;;;0.93;0.93;;;;;;;-141.23;100.00;62281.09;5103037;27;20564;-73
2023/12/01 04:55:26;;;;;;;2.85;2.15;;;;;;;-141.23;100.00;62281.09;5119477;27;20084;-70
2023/12/01 04:57:52;;;;;;;1.93;1.83;;;;;;;-141.23;100.00;62281.09;5138876;27;20043;-73
2023/12/01 05:00:19;;;;;;;2.53;2.20;;;;;;;-141.23;100.00;62281.09;5100068;27;20183;-73
2023/12/01 05:02:50;;;;;;;1.57;1.47;;;;;;;-141.23;100.00;62281.09;5067177;27;20066;-72
2023/12/01 05:05:20;;;;;;;0.90;0.90;;;;;;;-141.23;100.00;62281.09;5021055;28;20062;-73
2023/12/01 05:07:50;;;;;;;1.53;1.43;;;;;;;-141.23;100.00;62281.09;5054009;28;20044;-73
2023/12/01 05:10:17;;;;;;;1.20;1.20;;;;;;;-141.23;100.00;62281.09;5002252;28;20264;-73
2023/12/01 05:12:45;;;;;;;2.27;2.03;;;;;;;-141.23;100.00;62281.09;5027068;28;20071;-72
2023/12/01 05:15:18;;;;;;;0.93;0.93;;;;;;;-141.23;100.00;62281.09;5024046;28;20110;-74
2023/12/01 05:17:49;;;;;;;1.97;1.73;;;;;;;-141.23;100.00;62281.09;4999794;28;20088;-73
2023/12/01 05:20:16;;;;;;;1.13;1.13;;;;;;;-141.23;100.00;62281.09;4992260;28;20041;-73
2023/12/01 05:22:46;;;;;;;3.10;2.90;;;;;;;-141.23;100.00;62281.09;5018875;28;20045;-73
2023/12/01 05:25:15;;;;;;;1.48;1.38;;;;;;;-141.23;100.00;62281.09;4992678;28;20140;-74
2023/12/01 05:27:46;;;;;;;2.47;2.20;;;;;;;-141.23;100.00;62281.09;5006816;28;20170;-73
2023/12/01 05:30:14;;;;;;;3.73;1.67;;;;;;;-141.23;100.00;62281.09;5018658;28;20065;-73
2023/12/01 05:32:48;;;;;;;3.40;1.03;;;;;;;-141.23;100.00;62281.09;5038550;28;20169;-73
2023/12/01 05:35:15;;;;;;;1.93;1.83;;;;;;;-141.23;100.00;62281.09;5028038;27;20082;-74
2023/12/01 05:37:47;;;;;;;1.90;1.57;;;;;;;-141.23;100.00;62281.09;5064681;27;20081;-74
2023/12/01 05:40:36;;;;;;;1.43;1.33;;;;;;;-141.23;100.00;62281.09;5098522;27;20039;-75
2023/12/01 05:43:06;;;;;;;2.80;2.43;;;;;;;-141.23;100.00;62281.09;5056932;27;20051;-76
2023/12/01 05:45:35;;;;;;;1.07;1.07;;;;;;;-141.23;100.00;62281.09;5066868;27;20035;-74
2023/12/01 05:48:03;;;;;;;2.17;2.00;;;;;;;-141.23;100.00;62281.09;5116917;27;20284;-71
2023/12/01 05:50:31;;;;;;;1.50;1.40;;;;;;;-141.23;100.00;62281.09;5099600;27;20096;-72
2023/12/01 05:53:02;;;;;;;1.87;1.67;;;;;;;-141.23;100.00;62281.09;5099339;27;20045;-72
2023/12/01 05:55:30;;;;;;;2.73;2.00;;;;;;;-141.23;100.00;62281.09;5132943;27;20482;-72
2023/12/01 05:57:58;;;;;;;1.13;1.13;;;;;;;-141.23;100.00;62281.09;5099191;27;20050;-71
2023/12/01 06:00:31;;;;;;;1.83;1.73;;;;;;;-141.23;100.00;62281.09;5098874;27;20064;-71
2023/12/01 06:03:11;;;;;;;1.67;1.57;;;;;;;-141.23;100.00;62281.09;5100692;27;20479;-71
2023/12/01 06:05:53;;;;;;;2.47;2.27;;;;;;;-141.23;100.00;62281.09;5098610;27;20058;-71
2023/12/01 06:08:24;;;;;;;1.40;1.30;;;;;;;-141.23;100.00;62281.09;5082784;27;20051;-70
2023/12/01 06:10:50;;;;;;;2.73;2.30;;;;;;;-141.23;100.00;62281.09;5098854;27;20045;-70
2023/12/01 06:13:16;;;;;;;4.97;3.47;;;;;;;-141.23;100.00;62281.09;5081023;27;20128;-71
2023/12/01 06:15:43;;;;;;;3.53;2.03;;;;;;;-141.23;100.00;62281.09;5080684;27;20086;-71
2023/12/01 06:18:09;;;;;;;5.37;3.00;;;;;;;-141.23;100.00;62281.09;5082576;27;20107;-72
2023/12/01 06:20:37;;;;;;;1.80;1.70;;;;;;;-141.23;100.00;62281.09;5063881;27;20043;-74
2023/12/01 06:23:07;;;;;;;1.53;1.43;;;;;;;-141.23;100.00;62281.09;5097831;27;20046;-72
2023/12/01 06:25:35;;;;;;;2.13;2.03;;;;;;;-141.23;100.00;62281.09;5100622;27;20187;-72
2023/12/01 06:28:03;;;;;;;10.03;4.40;;;;;;;-141.23;100.00;62281.09;5097995;27;20277;-71
2023/12/01 06:30:34;;;;;;;2.10;1.90;;;;;;;-141.23;100.00;62281.09;5052096;28;20048;-71
2023/12/01 06:33:03;;;;;;;3.80;2.40;;;;;;;-141.23;100.00;62281.09;5037546;28;20121;-71
2023/12/01 06:35:29;;;;;;;6.00;2.10;;;;;;;-141.23;100.00;62281.09;5036919;28;20052;-71
2023/12/01 06:37:56;;;;;;;1.70;1.50;;;;;;;-141.23;100.00;62281.09;5036606;28;20044;-71
2023/12/01 06:40:23;;;;;;;4.13;3.03;;;;;;;-141.23;100.00;62281.09;5036636;28;20095;-72
2023/12/01 06:42:53;;;;;;;2.77;2.10;;;;;;;-141.23;100.00;62281.09;5013438;28;20049;-74
2023/12/01 06:45:23;;;;;;;1.67;1.37;;;;;;;-141.23;100.00;62281.09;5013541;28;20064;-72
2023/12/01 06:47:50;;;;;;;1.60;1.50;;;;;;;-141.23;100.00;62281.09;4962479;28;20045;-72
2023/12/01 06:50:18;;;;;;;2.27;2.03;;;;;;;-141.23;100.00;62281.09;4993490;28;20045;-72
2023/12/01 06:52:48;;;;;;;4.40;3.50;;;;;;;-141.23;100.00;62281.09;4993881;28;20530;-72
2023/12/01 06:55:15;;;;;;;1.67;1.58;;;;;;;-141.23;100.00;62281.09;4993641;28;20046;-74
2023/12/01 06:57:45;;;;;;;1.13;1.13;;;;;;;-141.23;100.00;62281.09;5048514;28;20566;-74
2023/12/01 07:02:59;;;;;;;1.67;1.57;;;;;;;-141.23;100.00;62281.09;5077455;28;20596;-73
2023/12/01 07:05:29;;;;;;;2.17;2.05;;;;;;;-141.23;100.00;62281.09;5074118;28;20032;-73
2023/12/01 07:08:01;;;;;;;3.42;2.40;;;;;;;-141.23;100.00;62281.09;5056858;28;20076;-75
2023/12/01 07:10:32;;;;;;;2.77;1.53;;;;;;;-141.23;100.00;62281.09;5089789;28;20044;-74
2023/12/01 07:13:00;;;;;;;1.13;1.13;;;;;;;-141.23;100.00;62281.09;5079137;27;20096;-75
2023/12/01 07:15:26;;;;;;;2.00;1.70;;;;;;;-141.23;100.00;62281.09;5081368;27;20031;-75
2023/12/01 07:17:56;;;;;;;3.00;1.93;;;;;;;-141.23;100.00;62281.09;5097473;27;20046;-75
2023/12/01 07:20:24;;;;;;;2.93;2.63;;;;;;;-141.23;100.00;62281.09;5080314;27;20035;-74
2023/12/01 07:22:53;;;;;;;1.90;1.53;;;;;;;-141.23;100.00;62281.09;5097726;27;20478;-74
2023/12/01 07:25:25;;;;;;;3.20;2.80;;;;;;;-141.23;100.00;62281.09;5080936;27;20043;-75
2023/12/01 07:28:02;;;;;;;3.27;1.83;;;;;;;-141.23;100.00;62281.09;5099248;27;20146;-76
2023/12/01 07:30:29;;;;;;;4.67;1.97;;;;;;;-141.23;100.00;62281.09;5097482;27;20043;-76
2023/12/01 07:33:01;;;;;;;6.33;3.70;;;;;;;-141.23;100.00;62281.09;5039462;28;20155;-74
2023/12/01 07:35:27;;;;;;;3.73;3.07;;;;;;;-141.23;100.00;62281.09;5039654;28;20058;-77
2023/12/01 07:37:54;;;;;;;3.50;2.40;;;;;;;-141.23;100.00;62281.09;5049516;28;20521;-76
2023/12/01 07:40:21;;;;;;;6.83;3.17;;;;;;;-141.23;100.00;62281.09;5071898;28;20047;-75
2023/12/01 07:42:48;;;;;;;5.93;3.47;;;;;;;-141.23;100.00;62281.09;5056268;28;20063;-76
2023/12/01 07:45:17;;;;;;;5.17;2.17;;;;;;;-141.23;100.00;62281.09;5038942;28;20155;-75
2023/12/01 07:47:44;;;;;;;2.33;2.13;;;;;;;-141.23;100.00;62281.09;5023506;28;20504;-74
2023/12/01 07:50:11;;;;;;;3.10;2.70;;;;;;;-141.23;100.00;62281.09;5022258;28;20101;-77
2023/12/01 07:52:38;;;;;;;3.03;2.63;;;;;;;-141.23;100.00;62281.09;5038978;28;20603;-75
2023/12/01 07:55:05;;;;;;;4.07;1.73;;;;;;;-141.23;100.00;62281.09;5056105;28;20044;-73
2023/12/01 07:57:31;;;;;;;7.07;2.93;;;;;;;-141.23;100.00;62281.09;5023129;28;20112;-76
2023/12/01 07:59:57;;;;;;;2.87;2.00;;;;;;;-141.23;100.00;62281.09;5038251;28;20123;-76
2023/12/01 08:02:24;;;;;;;6.00;3.00;;;;;;;-141.23;100.00;62281.09;5038532;28;20067;-75
2023/12/01 08:04:53;;;;;;;2.53;2.33;;;;;;;-141.23;100.00;62281.09;5071258;28;20059;-77
2023/12/01 08:07:19;;;;;;;4.23;2.60;;;;;;;-141.23;100.00;62281.09;5012000;28;20134;-76
2023/12/01 08:09:45;;;;;;;6.40;3.20;;;;;;;-141.23;100.00;62281.09;4996183;28;20057;-73
2023/12/01 08:12:19;;;;;;;3.43;2.43;;;;;;;-141.23;100.00;62281.09;4972194;28;20050;-78
2023/12/01 08:14:45;;;;;;;5.53;3.47;;;;;;;-141.23;100.00;62281.09;4941288;28;20050;-76
2023/12/01 08:17:11;;;;;;;5.07;3.53;;;;;;;-141.23;100.00;62281.09;4956606;28;20054;-77
2023/12/01 08:19:38;;;;;;;4.90;3.87;;;;;;;-141.23;100.00;62281.09;4940627;28;20076;-76
2023/12/01 08:22:06;;;;;;;3.83;3.13;;;;;;;-141.23;100.00;62281.09;4989011;28;20050;-73
2023/12/01 08:24:33;;;;;;;7.37;3.80;;;;;;;-141.23;100.00;62281.09;4941525;28;20077;-76
2023/12/01 08:27:00;;;;;;;10.93;5.90;;;;;;;-141.23;100.00;62281.09;4957091;28;20058;-76
2023/12/01 08:29:28;;;;;;;4.40;2.53;;;;;;;-141.23;100.00;62281.09;4934869;29;20059;-77
2023/12/01 08:31:54;;;;;;;4.03;2.67;;;;;;;-141.23;100.00;62281.09;4896194;29;20054;-73
2023/12/01 08:34:20;;;;;;;6.27;4.13;;;;;;;-141.23;100.00;62281.09;4896303;29;20143;-75
2023/12/01 08:36:50;;;;;;;3.63;3.13;;;;;;;-141.23;100.00;62281.09;4896126;29;20144;-74
2023/12/01 08:39:24;;;;;;;6.43;4.40;;;;;;;-141.23;100.00;62281.09;4910226;29;20062;-73
2023/12/01 08:41:53;;;;;;;2.80;2.47;;;;;;;-141.23;100.00;62281.09;4926654;29;20062;-73
2023/12/01 08:44:20;;;;;;;4.23;3.40;;;;;;;-141.23;100.00;62281.09;4935990;28;20055;-76
2023/12/01 08:46:45;;;;;;;5.60;4.10;;;;;;;-141.23;100.00;62281.09;4938423;28;20136;-75
2023/12/01 08:49:12;;;;;;;7.33;5.20;;;;;;;-141.23;100.00;62281.09;4937588;28;20494;-76
2023/12/01 08:51:39;;;;;;;5.90;4.03;;;;;;;-141.23;100.00;62281.09;4921710;28;20052;-79
2023/12/01 08:54:08;;;;;;;5.70;3.57;;;;;;;-141.23;100.00;62281.09;4921742;28;20446;-71
2023/12/01 08:56:34;;;;;;;5.77;4.00;;;;;;;-141.23;100.00;62281.09;4941950;28;20073;-75
2023/12/01 08:59:00;;;;;;;4.23;2.63;;;;;;;-141.23;100.00;62281.09;4963444;28;20148;-73
2023/12/01 09:01:28;;;;;;;6.53;4.30;;;;;;;-141.23;100.00;62281.09;5032042;28;20117;-75
2023/12/01 09:03:55;;;;;;;8.60;4.40;;;;;;;-141.23;100.00;62281.09;5016681;28;20052;-72
2023/12/01 09:06:21;;;;;;;6.70;4.53;;;;;;;-141.23;100.00;62281.09;5014551;28;20139;-73
2023/12/01 09:08:47;;;;;;;10.47;5.23;;;;;;;-141.23;100.00;62281.09;5048060;28;20143;-73
2023/12/01 09:11:13;;;;;;;3.37;2.57;;;;;;;-141.23;100.00;62281.09;5031315;28;20542;-72
2023/12/01 09:13:42;;;;;;;7.53;4.13;;;;;;;-141.23;100.00;62281.09;5059891;28;20047;-71
2023/12/01 09:16:08;;;;;;;6.17;3.10;;;;;;;-141.23;100.00;62281.09;5073072;28;20055;-70
2023/12/01 09:18:36;;;;;;;2.00;1.80;;;;;;;-141.23;100.00;62281.09;5112995;28;20039;-73
2023/12/01 09:21:08;;;;;;;7.67;4.93;;;;;;;-141.23;100.00;62281.09;5099419;28;20129;-71
2023/12/01 09:27:54;;;;;;;6.50;3.83;;;;;;;-141.23;100.00;62281.09;5030913;28;20079;-71
2023/12/01 09:30:20;;;;;;;8.43;4.13;;;;;;;-141.23;100.00;62281.09;4999743;28;20825;-71
2023/12/01 09:32:45;;;;;;;6.23;3.97;;;;;;;-141.23;100.00;62281.09;5070340;28;20044;-71
2023/12/01 09:35:12;;;;;;;10.37;5.60;;;;;;;-141.23;100.00;62281.09;5078229;28;20039;-71
2023/12/01 09:37:38;;;;;;;4.83;3.30;;;;;;;-141.23;100.00;62281.09;5061582;28;20411;-71
2023/12/01 09:40:06;;;;;;;6.53;3.60;;;;;;;-141.23;100.00;62281.09;5037754;28;20534;-73
2023/12/01 09:42:33;;;;;;;5.27;3.90;;;;;;;-141.23;100.00;62281.09;5054309;28;20485;-72
2023/12/01 09:45:29;;;;;;;6.07;4.37;;;;;;;-141.23;100.00;62281.09;5058080;28;20135;-70
2023/12/01 09:48:04;;;;;;;2.67;2.47;;;;;;;-141.23;100.00;62281.09;5034796;28;20114;-70
2023/12/01 09:50:30;;;;;;;5.30;3.10;;;;;;;-141.23;100.00;62281.09;5017710;28;20053;-70
2023/12/01 09:52:56;;;;;;;7.73;5.23;;;;;;;-141.23;100.00;62281.09;5034483;28;20473;-73
2023/12/01 09:55:22;;;;;;;1.80;1.60;;;;;;;-141.23;100.00;62281.09;5049277;28;20105;-71
2023/12/01 09:57:51;;;;;;;8.13;5.07;;;;;;;-141.23;100.00;62281.09;5057618;28;20154;-71
2023/12/01 10:00:19;;;;;;;7.30;4.93;;;;;;;-141.23;100.00;62281.09;5057401;28;20054;-72
2023/12/01 10:02:48;;;;;;;9.83;5.70;;;;;;;-141.23;100.00;62281.09;5073655;28;20056;-71
2023/12/01 10:05:14;;;;;;;3.90;3.20;;;;;;;-141.23;100.00;62281.09;5074051;28;20084;-71
2023/12/01 10:07:40;;;;;;;6.10;4.23;;;;;;;-141.23;100.00;62281.09;5043398;28;20461;-71
2023/12/01 10:10:22;;;;;;;8.53;3.70;;;;;;;-141.23;100.00;62281.09;5001210;28;20077;-72
2023/12/01 10:13:04;;;;;;;5.73;4.30;;;;;;;-141.23;100.00;62281.09;5016932;28;20045;-72
2023/12/01 10:15:38;;;;;;;6.30;3.23;;;;;;;-141.23;100.00;62281.09;5001911;28;20037;-71
2023/12/01 10:18:15;;;;;;;7.30;4.20;;;;;;;-141.23;100.00;62281.09;4977392;28;20065;-71
2023/12/01 10:21:07;;;;;;;10.97;5.73;;;;;;;-141.23;100.00;62281.09;5013945;28;20064;-70
2023/12/01 10:23:36;;;;;;;3.77;3.10;;;;;;;-141.23;100.00;62281.09;5030003;28;20597;-71
2023/12/01 10:26:07;;;;;;;10.50;5.30;;;;;;;-141.23;100.00;62281.09;5014133;28;20134;-71
2023/12/01 10:28:41;;;;;;;4.67;3.43;;;;;;;-141.23;100.00;62281.09;5014598;28;20056;-71
2023/12/01 10:31:07;;;;;;;4.60;3.47;;;;;;;-141.23;100.00;62281.09;5013722;28;20041;-71
2023/12/01 10:33:35;;;;;;;7.97;5.20;;;;;;;-141.23;100.00;62281.09;5030929;28;20083;-71
2023/12/01 10:36:12;;;;;;;7.53;4.33;;;;;;;-141.23;100.00;62281.09;5054082;28;20044;-71
2023/12/01 10:38:39;;;;;;;6.37;3.97;;;;;;;-141.23;100.00;62281.09;5037061;28;20147;-71
2023/12/01 10:41:09;;;;;;;9.40;6.03;;;;;;;-141.23;100.00;62281.09;5053450;28;20036;-70
2023/12/01 10:43:36;;;;;;;5.75;3.50;;;;;;;-141.23;100.00;62281.09;5069935;28;20056;-71
2023/12/01 10:46:05;;;;;;;6.63;4.83;;;;;;;-141.23;100.00;62281.09;5053909;28;20118;-71
2023/12/01 10:48:34;;;;;;;10.80;6.57;;;;;;;-141.23;100.00;62281.09;5068610;27;20062;-71
2023/12/01 10:51:03;;;;;;;10.50;5.60;;;;;;;-141.23;100.00;62281.09;5098132;27;20394;-71
2023/12/01 10:53:30;;;;;;;10.97;5.93;;;;;;;-141.23;100.00;62281.09;5056303;28;20519;-72
2023/12/01 10:56:11;;;;;;;12.67;6.50;;;;;;;-141.23;100.00;62281.09;5039827;28;20043;-71
2023/12/01 10:58:39;;;;;;;7.07;4.93;;;;;;;-141.23;100.00;62281.09;5040171;28;20170;-70
2023/12/01 11:01:12;;;;;;;9.37;5.37;;;;;;;-141.23;100.00;62281.09;5056249;28;20174;-70
2023/12/01 11:03:41;;;;;;;12.63;6.27;;;;;;;-141.23;100.00;62281.09;5052619;28;20048;-69
2023/12/01 11:06:12;;;;;;;5.63;4.33;;;;;;;-141.23;100.00;62281.09;5003676;28;20399;-69
2023/12/01 11:08:41;;;;;;;;;;;;;;;-141.23;100.00;62281.09;5020566;28;20162;-70
2023/12/01 11:11:18;;;;;;;3.10;2.22;;;;;;;-141.23;100.00;62281.09;5036364;28;20272;-69
2023/12/01 11:13:46;;;;;;;11.43;5.07;;;;;;;-141.23;100.00;62281.09;5032139;28;20055;-70
2023/12/01 11:16:15;;;;;;;7.00;4.70;;;;;;;-141.23;100.00;62281.09;4976108;28;20226;-70
2023/12/01 11:18:44;;;;;;;6.20;4.23;;;;;;;-141.23;100.00;62281.09;4928961;28;20061;-69
2023/12/01 11:21:11;;;;;;;10.83;6.30;;;;;;;-141.23;100.00;62281.09;4960299;28;20512;-70